Time;durP1;ratioP1;P1;durP2;ratioP2;P2;SDS_P1;SDS_P2;PMS_P1;PMS_P2;Temp;Humidity;BMP_temperature;BMP_pressure;BME280_temperature;BME280_humidity;BME280_pressure;Samples;Min_cycle;Max_cycle;Signal;HPM_P1;HPM_P2
2022/09/29 00:00:30;;;;;;;14.82;3.40;;;;;;;;;;5072448;28;20035;-61
2022/09/29 00:02:56;;;;;;;6.07;2.53;;;;;;;;;;5066666;28;20061;-65
2022/09/29 00:05:22;;;;;;;7.03;3.13;;;;;;;;;;5072515;28;20021;-65
2022/09/29 00:07:48;;;;;;;12.15;2.75;;;;;;;;;;5067183;28;20463;-65
2022/09/29 00:10:14;;;;;;;6.75;2.85;;;;;;;;;;5072733;28;20027;-64
2022/09/29 00:12:40;;;;;;;10.65;2.97;;;;;;;;;;5071226;28;20033;-63
2022/09/29 00:15:06;;;;;;;14.10;3.45;;;;;;;;;;5065073;28;20036;-64
2022/09/29 00:17:32;;;;;;;13.73;3.00;;;;;;;;;;5065006;28;20039;-62
2022/09/29 00:19:58;;;;;;;9.27;3.10;;;;;;;;;;5068767;28;20025;-62
2022/09/29 00:22:23;;;;;;;9.27;2.60;;;;;;;;;;5071534;28;20569;-64
2022/09/29 00:24:49;;;;;;;8.02;2.88;;;;;;;;;;5068038;28;20035;-62
2022/09/29 00:27:17;;;;;;;9.20;2.47;;;;;;;;;;5065911;28;20033;-61
2022/09/29 00:29:43;;;;;;;4.70;2.30;;;;;;;;;;5070274;28;20033;-62
2022/09/29 00:32:09;;;;;;;7.70;2.33;;;;;;;;;;5064189;28;20066;-63
2022/09/29 00:34:35;;;;;;;5.07;2.47;;;;;;;;;;5065012;28;20479;-63
2022/09/29 00:37:01;;;;;;;6.40;2.80;;;;;;;;;;5063554;28;20047;-62
2022/09/29 00:39:27;;;;;;;6.95;2.50;;;;;;;;;;5072593;28;20034;-62
2022/09/29 00:41:53;;;;;;;6.70;2.22;;;;;;;;;;5064672;28;20433;-61
2022/09/29 00:44:18;;;;;;;4.50;2.20;;;;;;;;;;5072686;28;20017;-64
2022/09/29 00:46:58;;;;;;;5.82;2.38;;;;;;;;;;5072519;28;20128;-63
2022/09/29 00:49:29;;;;;;;7.30;2.72;;;;;;;;;;5066611;28;20037;-63
2022/09/29 00:51:58;;;;;;;3.33;2.40;;;;;;;;;;5068286;28;20025;-62
2022/09/29 00:54:28;;;;;;;10.38;2.67;;;;;;;;;;5066482;28;20031;-62
2022/09/29 00:56:56;;;;;;;6.45;3.22;;;;;;;;;;5067645;28;20390;-63
2022/09/29 00:59:41;;;;;;;7.88;2.95;;;;;;;;;;5069788;28;20021;-62
2022/09/29 01:02:07;;;;;;;9.88;3.60;;;;;;;;;;5069369;28;20128;-63
2022/09/29 01:04:34;;;;;;;8.40;3.58;;;;;;;;;;5067608;28;20103;-62
2022/09/29 01:07:00;;;;;;;12.50;4.22;;;;;;;;;;5064389;28;20029;-63
2022/09/29 01:09:33;;;;;;;8.85;4.00;;;;;;;;;;5069524;28;20020;-63
2022/09/29 01:11:59;;;;;;;9.80;4.03;;;;;;;;;;5064035;28;20040;-62
2022/09/29 01:14:28;;;;;;;8.95;4.13;;;;;;;;;;5068301;28;20028;-62
2022/09/29 01:16:54;;;;;;;11.10;4.00;;;;;;;;;;5071527;28;20025;-62
2022/09/29 01:19:28;;;;;;;8.25;3.80;;;;;;;;;;5066968;28;20476;-62
2022/09/29 01:22:22;;;;;;;7.20;4.13;;;;;;;;;;5072047;28;20029;-63
2022/09/29 01:25:06;;;;;;;8.55;3.83;;;;;;;;;;5062725;28;20407;-63
2022/09/29 01:27:32;;;;;;;10.23;3.92;;;;;;;;;;5063748;28;20025;-62
2022/09/29 01:30:09;;;;;;;9.30;4.15;;;;;;;;;;5065389;28;20016;-62
2022/09/29 01:33:00;;;;;;;10.50;4.22;;;;;;;;;;5062257;28;20078;-64
2022/09/29 01:35:55;;;;;;;8.93;3.70;;;;;;;;;;5072855;28;20040;-61
2022/09/29 01:38:45;;;;;;;9.68;4.63;;;;;;;;;;5067338;28;20076;-62
2022/09/29 01:41:29;;;;;;;8.88;4.03;;;;;;;;;;5068660;28;20391;-61
2022/09/29 01:44:03;;;;;;;9.70;4.35;;;;;;;;;;5060944;28;20067;-62
2022/09/29 01:47:07;;;;;;;10.38;4.22;;;;;;;;;;5064783;28;20503;-62
2022/09/29 01:49:39;;;;;;;13.68;3.97;;;;;;;;;;5057981;28;20044;-63
2022/09/29 01:52:18;;;;;;;10.05;3.97;;;;;;;;;;5059569;28;20376;-63
2022/09/29 01:54:58;;;;;;;5.55;3.70;;;;;;;;;;5066555;28;20035;-62
2022/09/29 01:57:33;;;;;;;7.45;3.80;;;;;;;;;;5066230;28;20028;-62
2022/09/29 02:00:10;;;;;;;9.98;3.28;;;;;;;;;;5065344;28;20506;-61
2022/09/29 02:02:58;;;;;;;6.28;3.58;;;;;;;;;;5060384;28;20063;-62
2022/09/29 02:05:45;;;;;;;7.05;3.15;;;;;;;;;;5067128;28;20393;-65
2022/09/29 02:08:23;;;;;;;8.10;3.22;;;;;;;;;;5067753;28;20032;-62
2022/09/29 02:10:59;;;;;;;10.05;3.45;;;;;;;;;;5072883;28;20037;-62
2022/09/29 02:13:28;;;;;;;8.43;3.65;;;;;;;;;;5068896;28;20394;-63
2022/09/29 02:15:56;;;;;;;11.95;4.20;;;;;;;;;;5066416;28;20033;-63
2022/09/29 02:18:25;;;;;;;11.50;3.53;;;;;;;;;;5070521;28;20383;-62
2022/09/29 02:20:51;;;;;;;10.60;3.30;;;;;;;;;;5066291;28;20024;-62
2022/09/29 02:23:17;;;;;;;13.52;3.58;;;;;;;;;;5067649;28;20048;-62
2022/09/29 02:25:43;;;;;;;8.88;3.25;;;;;;;;;;5066420;28;20020;-62
2022/09/29 02:28:09;;;;;;;21.30;9.13;;;;;;;;;;5063378;28;20032;-61
2022/09/29 02:30:35;;;;;;;13.57;5.28;;;;;;;;;;5068022;28;20044;-61
2022/09/29 02:33:01;;;;;;;13.48;5.03;;;;;;;;;;5065469;28;20047;-64
2022/09/29 02:36:02;;;;;;;8.57;4.35;;;;;;;;;;5069185;28;20032;-62
2022/09/29 02:38:40;;;;;;;11.32;4.68;;;;;;;;;;5063819;28;20033;-63
2022/09/29 02:41:22;;;;;;;13.50;4.47;;;;;;;;;;5067054;28;20039;-62
2022/09/29 02:44:08;;;;;;;11.10;4.60;;;;;;;;;;5062870;28;20029;-64
2022/09/29 02:46:33;;;;;;;8.68;4.45;;;;;;;;;;5060944;28;20043;-62
2022/09/29 02:49:23;;;;;;;9.30;4.60;;;;;;;;;;5062542;28;20025;-62
2022/09/29 02:51:57;;;;;;;8.68;4.40;;;;;;;;;;5065552;28;20044;-62
2022/09/29 02:54:56;;;;;;;13.77;4.50;;;;;;;;;;5061450;28;20463;-61
2022/09/29 02:57:25;;;;;;;6.38;3.95;;;;;;;;;;5068549;28;20120;-62
2022/09/29 02:59:59;;;;;;;8.13;4.45;;;;;;;;;;5067532;28;20035;-61
2022/09/29 03:02:26;;;;;;;13.40;5.20;;;;;;;;;;5063563;28;20065;-64
2022/09/29 03:04:52;;;;;;;16.33;5.10;;;;;;;;;;5068371;28;20020;-62
2022/09/29 03:07:19;;;;;;;13.52;4.50;;;;;;;;;;5062142;28;20033;-63
2022/09/29 03:09:45;;;;;;;8.73;4.75;;;;;;;;;;5068353;28;20391;-62
2022/09/29 03:12:11;;;;;;;9.50;5.10;;;;;;;;;;5067774;28;20048;-62
2022/09/29 03:14:37;;;;;;;10.85;4.85;;;;;;;;;;5063987;28;20029;-63
2022/09/29 03:17:03;;;;;;;9.88;4.60;;;;;;;;;;5056589;28;20033;-62
2022/09/29 03:19:28;;;;;;;6.28;4.78;;;;;;;;;;5070028;28;20459;-63
2022/09/29 03:21:54;;;;;;;18.10;5.65;;;;;;;;;;5072125;28;20128;-63
2022/09/29 03:24:20;;;;;;;15.60;5.72;;;;;;;;;;5070953;28;20024;-62
2022/09/29 03:26:46;;;;;;;15.02;5.60;;;;;;;;;;5072172;28;20047;-63
2022/09/29 03:29:12;;;;;;;11.32;4.70;;;;;;;;;;5072495;28;20047;-62
2022/09/29 03:31:41;;;;;;;10.80;4.85;;;;;;;;;;5072554;28;20029;-63
2022/09/29 03:34:06;;;;;;;6.18;4.78;;;;;;;;;;5071377;28;20053;-61
2022/09/29 03:36:32;;;;;;;9.23;5.32;;;;;;;;;;5072653;28;20086;-61
2022/09/29 03:38:58;;;;;;;15.05;5.53;;;;;;;;;;5072264;28;20043;-61
2022/09/29 03:41:24;;;;;;;11.73;5.97;;;;;;;;;;5072116;28;20412;-62
2022/09/29 03:43:50;;;;;;;10.77;5.30;;;;;;;;;;5070774;28;20115;-62
2022/09/29 03:46:16;;;;;;;19.85;6.22;;;;;;;;;;5071561;28;20059;-62
2022/09/29 03:48:41;;;;;;;9.98;5.40;;;;;;;;;;5072294;28;20029;-62
2022/09/29 03:51:09;;;;;;;12.73;6.43;;;;;;;;;;5072260;28;20025;-62
2022/09/29 03:53:35;;;;;;;10.20;5.07;;;;;;;;;;5071240;28;20108;-63
2022/09/29 03:56:02;;;;;;;9.30;5.22;;;;;;;;;;5072340;28;20032;-61
2022/09/29 03:58:28;;;;;;;14.23;5.70;;;;;;;;;;5064402;28;20124;-62
2022/09/29 04:00:54;;;;;;;11.35;5.35;;;;;;;;;;5060542;28;20137;-62
2022/09/29 04:03:20;;;;;;;13.32;5.28;;;;;;;;;;5051698;28;20029;-62
2022/09/29 04:05:47;;;;;;;11.13;5.85;;;;;;;;;;5054160;28;20476;-64
2022/09/29 04:08:14;;;;;;;18.27;5.40;;;;;;;;;;5073176;28;20024;-63
2022/09/29 04:10:41;;;;;;;11.10;5.40;;;;;;;;;;5075396;28;20387;-62
2022/09/29 04:13:07;;;;;;;12.57;5.68;;;;;;;;;;5075334;28;20035;-62
2022/09/29 04:15:33;;;;;;;11.48;4.65;;;;;;;;;;5075363;28;20041;-63
2022/09/29 04:17:59;;;;;;;11.88;4.50;;;;;;;;;;5075454;28;20027;-62
2022/09/29 04:20:25;;;;;;;10.27;4.32;;;;;;;;;;5075410;28;20028;-62
2022/09/29 04:22:51;;;;;;;14.02;5.07;;;;;;;;;;5075604;28;20372;-63
2022/09/29 04:25:17;;;;;;;20.23;7.25;;;;;;;;;;5075247;28;20043;-63
2022/09/29 04:27:43;;;;;;;14.25;5.45;;;;;;;;;;5071599;28;20375;-63
2022/09/29 04:30:09;;;;;;;11.00;4.35;;;;;;;;;;5063821;28;20041;-64
2022/09/29 04:32:35;;;;;;;11.63;5.10;;;;;;;;;;5055157;28;20368;-62
2022/09/29 04:35:01;;;;;;;12.82;5.18;;;;;;;;;;5054984;28;20041;-63
2022/09/29 04:37:27;;;;;;;18.27;6.50;;;;;;;;;;5055232;28;20036;-62
2022/09/29 04:39:53;;;;;;;16.35;6.68;;;;;;;;;;5054942;28;20025;-61
2022/09/29 04:42:19;;;;;;;14.50;6.63;;;;;;;;;;5054709;28;20093;-63
2022/09/29 04:44:46;;;;;;;22.70;6.40;;;;;;;;;;5054705;28;20044;-62
2022/09/29 04:47:12;;;;;;;16.73;6.15;;;;;;;;;;5054763;28;20166;-62
2022/09/29 04:49:38;;;;;;;12.52;6.40;;;;;;;;;;5054716;28;20150;-62
2022/09/29 04:52:04;;;;;;;12.00;6.55;;;;;;;;;;5054514;28;20032;-62
2022/09/29 04:54:31;;;;;;;14.02;5.97;;;;;;;;;;5054751;28;20041;-61
2022/09/29 04:56:57;;;;;;;13.90;6.53;;;;;;;;;;5054664;28;20036;-62
2022/09/29 04:59:24;;;;;;;11.48;5.53;;;;;;;;;;5054272;28;20032;-62
2022/09/29 05:01:49;;;;;;;12.70;5.80;;;;;;;;;;5054062;28;20108;-63
2022/09/29 05:04:15;;;;;;;10.02;5.70;;;;;;;;;;5054717;28;20119;-62
2022/09/29 05:06:41;;;;;;;11.45;5.35;;;;;;;;;;5053908;28;20056;-63
2022/09/29 05:09:07;;;;;;;12.70;4.70;;;;;;;;;;5053940;28;20099;-63
2022/09/29 05:11:33;;;;;;;8.70;4.90;;;;;;;;;;5053628;28;20021;-63
2022/09/29 05:13:59;;;;;;;11.18;5.20;;;;;;;;;;5053840;28;20568;-63
2022/09/29 05:16:25;;;;;;;6.57;4.70;;;;;;;;;;5054220;28;20033;-63
2022/09/29 05:18:51;;;;;;;8.77;5.18;;;;;;;;;;5053862;28;20031;-64
2022/09/29 05:21:17;;;;;;;9.98;4.78;;;;;;;;;;5053535;28;20025;-62
2022/09/29 05:23:43;;;;;;;13.05;4.80;;;;;;;;;;5053853;28;20044;-62
2022/09/29 05:26:11;;;;;;;11.90;4.20;;;;;;;;;;5053644;28;20025;-63
2022/09/29 05:28:38;;;;;;;5.47;3.90;;;;;;;;;;5061422;28;20041;-63
2022/09/29 05:31:06;;;;;;;16.15;6.20;;;;;;;;;;5054007;28;20054;-64
2022/09/29 05:33:33;;;;;;;7.25;3.85;;;;;;;;;;5054150;28;20464;-63
2022/09/29 05:35:59;;;;;;;5.85;3.65;;;;;;;;;;5054001;28;20411;-62
2022/09/29 05:38:25;;;;;;;8.70;4.18;;;;;;;;;;5054768;28;20029;-63
2022/09/29 05:40:52;;;;;;;11.88;4.18;;;;;;;;;;5054449;28;20033;-63
2022/09/29 05:43:19;;;;;;;7.72;4.32;;;;;;;;;;5053928;28;20480;-63
2022/09/29 05:45:45;;;;;;;8.82;4.07;;;;;;;;;;5053719;28;20107;-63
2022/09/29 05:48:11;;;;;;;7.18;3.95;;;;;;;;;;5053711;28;20043;-62
2022/09/29 05:50:42;;;;;;;7.72;4.13;;;;;;;;;;5053364;28;20456;-63
2022/09/29 05:53:11;;;;;;;14.73;4.60;;;;;;;;;;5052202;28;20029;-63
2022/09/29 05:55:38;;;;;;;8.88;3.83;;;;;;;;;;5053680;28;20099;-63
2022/09/29 05:58:05;;;;;;;7.85;3.75;;;;;;;;;;5053501;28;20110;-62
2022/09/29 06:00:32;;;;;;;7.55;3.90;;;;;;;;;;5053311;28;20025;-62
2022/09/29 06:03:01;;;;;;;10.57;3.90;;;;;;;;;;5053351;28;20120;-63
2022/09/29 06:05:28;;;;;;;9.82;3.78;;;;;;;;;;5053434;28;20104;-62
2022/09/29 06:07:54;;;;;;;14.65;4.40;;;;;;;;;;5053280;28;20029;-63
2022/09/29 06:10:20;;;;;;;16.95;4.78;;;;;;;;;;5053035;28;20032;-64
2022/09/29 06:12:46;;;;;;;10.50;4.45;;;;;;;;;;5056168;28;20104;-63
2022/09/29 06:15:12;;;;;;;8.90;4.07;;;;;;;;;;5071353;28;20063;-63
2022/09/29 06:17:38;;;;;;;14.05;4.05;;;;;;;;;;5072462;28;20047;-63
2022/09/29 06:20:08;;;;;;;7.60;4.75;;;;;;;;;;5072827;28;20099;-62
2022/09/29 06:22:34;;;;;;;6.53;4.22;;;;;;;;;;5066314;28;20032;-62
2022/09/29 06:25:00;;;;;;;11.93;5.20;;;;;;;;;;5061665;28;20070;-61
2022/09/29 06:27:26;;;;;;;10.40;5.13;;;;;;;;;;5062273;28;20047;-62
2022/09/29 06:29:52;;;;;;;15.18;5.20;;;;;;;;;;5062242;28;20017;-62
2022/09/29 06:32:17;;;;;;;12.50;4.28;;;;;;;;;;5062397;28;20442;-61
2022/09/29 06:37:34;;;;;;;8.95;4.60;;;;;;;;;;5060381;28;20507;-61
2022/09/29 06:40:03;;;;;;;10.38;4.82;;;;;;;;;;5060224;28;20590;-62
2022/09/29 06:42:29;;;;;;;13.30;4.30;;;;;;;;;;5060177;28;20067;-62
2022/09/29 06:44:56;;;;;;;19.30;4.50;;;;;;;;;;5052962;28;20031;-63
2022/09/29 06:47:22;;;;;;;16.17;4.40;;;;;;;;;;5051902;28;20036;-63
2022/09/29 06:49:49;;;;;;;14.70;4.65;;;;;;;;;;5052378;28;20044;-63
2022/09/29 06:52:15;;;;;;;11.07;4.55;;;;;;;;;;5052310;28;20032;-63
2022/09/29 06:54:41;;;;;;;17.65;5.03;;;;;;;;;;5051583;28;20029;-63
2022/09/29 06:57:08;;;;;;;7.70;4.88;;;;;;;;;;5052713;28;20025;-63
2022/09/29 06:59:34;;;;;;;12.10;4.63;;;;;;;;;;5077368;28;20035;-62
2022/09/29 07:02:00;;;;;;;8.68;4.90;;;;;;;;;;5091829;28;20398;-62
2022/09/29 07:04:26;;;;;;;10.65;4.95;;;;;;;;;;5091085;28;20489;-65
2022/09/29 07:06:52;;;;;;;9.27;4.80;;;;;;;;;;5091025;28;20120;-62
2022/09/29 07:09:19;;;;;;;11.95;5.07;;;;;;;;;;5056015;28;20021;-62
2022/09/29 07:11:47;;;;;;;13.77;5.40;;;;;;;;;;5071128;28;20033;-62
2022/09/29 07:14:17;;;;;;;12.45;5.45;;;;;;;;;;5071785;28;20033;-63
2022/09/29 07:16:43;;;;;;;11.32;5.55;;;;;;;;;;5071750;28;20039;-64
2022/09/29 07:19:46;;;;;;;12.48;5.78;;;;;;;;;;5072239;28;20107;-62
2022/09/29 07:31:12;;;;;;;16.20;4.85;;;;;;;;;;4992110;28;20444;-62
2022/09/29 07:33:38;;;;;;;11.60;4.60;;;;;;;;;;4992463;28;20049;-62
2022/09/29 07:36:04;;;;;;;10.02;4.47;;;;;;;;;;4982262;28;20030;-63
2022/09/29 07:38:31;;;;;;;8.38;4.40;;;;;;;;;;4986084;28;20039;-63
2022/09/29 07:41:06;;;;;;;10.55;4.10;;;;;;;;;;4978625;28;20030;-62
2022/09/29 07:43:32;;;;;;;7.00;3.97;;;;;;;;;;5002701;28;20031;-62
2022/09/29 07:46:01;;;;;;;10.35;3.95;;;;;;;;;;4994953;28;20038;-62
2022/09/29 07:48:27;;;;;;;8.75;3.70;;;;;;;;;;4995682;28;20062;-63
2022/09/29 07:51:00;;;;;;;10.32;4.18;;;;;;;;;;4995889;28;20558;-63
2022/09/29 07:59:23;;;;;;;7.82;3.30;;;;;;;;;;5012780;28;20515;-61
2022/09/29 08:01:49;;;;;;;12.63;3.25;;;;;;;;;;5032711;28;20087;-61
2022/09/29 08:04:15;;;;;;;9.07;4.13;;;;;;;;;;5031437;28;20026;-62
2022/09/29 08:06:41;;;;;;;10.00;3.58;;;;;;;;;;5014644;28;20124;-61
2022/09/29 08:09:07;;;;;;;7.93;3.30;;;;;;;;;;5015896;28;20045;-61
2022/09/29 08:11:37;;;;;;;22.83;4.25;;;;;;;;;;5014522;28;20030;-62
2022/09/29 08:14:03;;;;;;;28.33;17.35;;;;;;;;;;4996014;28;20038;-63
2022/09/29 08:16:30;;;;;;;8.65;3.40;;;;;;;;;;4995613;28;20464;-62
2022/09/29 08:18:56;;;;;;;9.32;2.97;;;;;;;;;;4995981;28;20429;-61
2022/09/29 08:21:22;;;;;;;7.20;3.00;;;;;;;;;;4995647;28;20023;-61
2022/09/29 08:23:48;;;;;;;10.20;3.55;;;;;;;;;;4995644;28;20031;-60
2022/09/29 08:26:16;;;;;;;6.13;3.35;;;;;;;;;;4995147;28;20034;-62
2022/09/29 08:28:43;;;;;;;8.57;3.30;;;;;;;;;;4995453;28;20113;-61
2022/09/29 08:31:19;;;;;;;6.57;2.40;;;;;;;;;;4995740;28;20030;-62
2022/09/29 08:33:46;;;;;;;7.72;2.40;;;;;;;;;;4995677;28;20058;-62
2022/09/29 08:36:15;;;;;;;7.53;2.72;;;;;;;;;;4995471;28;20479;-61
2022/09/29 08:38:48;;;;;;;8.20;2.42;;;;;;;;;;4993731;28;20106;-60
2022/09/29 08:41:43;;;;;;;5.03;2.22;;;;;;;;;;4995551;28;20058;-61
2022/09/29 08:44:21;;;;;;;9.98;2.03;;;;;;;;;;4990766;28;20492;-62
2022/09/29 08:47:13;;;;;;;4.13;2.55;;;;;;;;;;4995657;28;20387;-61
2022/09/29 08:49:42;;;;;;;3.75;2.13;;;;;;;;;;4989919;28;20524;-61
2022/09/29 08:52:13;;;;;;;5.40;2.20;;;;;;;;;;4995050;28;20034;-61
2022/09/29 08:54:43;;;;;;;5.80;2.10;;;;;;;;;;4993903;28;20042;-60
2022/09/29 08:57:17;;;;;;;5.32;2.00;;;;;;;;;;4994069;28;20081;-61
2022/09/29 08:59:52;;;;;;;5.60;2.13;;;;;;;;;;4993940;28;20064;-62
2022/09/29 09:02:52;;;;;;;7.40;2.42;;;;;;;;;;4994326;28;20035;-61
2022/09/29 09:05:31;;;;;;;4.18;2.40;;;;;;;;;;4994873;28;20042;-61
2022/09/29 09:08:30;;;;;;;3.72;1.75;;;;;;;;;;4995035;28;20042;-61
2022/09/29 09:11:04;;;;;;;3.83;1.95;;;;;;;;;;4994114;28;20038;-63
2022/09/29 09:13:47;;;;;;;5.90;2.70;;;;;;;;;;4994795;28;20053;-63
2022/09/29 09:16:25;;;;;;;6.53;2.67;;;;;;;;;;4994974;28;20057;-61
2022/09/29 09:19:15;;;;;;;5.20;1.90;;;;;;;;;;4995079;28;20104;-63
2022/09/29 09:21:43;;;;;;;5.28;2.00;;;;;;;;;;4994987;28;20034;-61
2022/09/29 09:24:31;;;;;;;5.40;2.00;;;;;;;;;;5009890;28;20034;-61
2022/09/29 09:26:58;;;;;;;3.53;1.70;;;;;;;;;;4994885;28;20041;-62
2022/09/29 09:29:28;;;;;;;4.47;1.33;;;;;;;;;;5009844;28;20488;-67
2022/09/29 09:32:00;;;;;;;4.97;1.75;;;;;;;;;;4994720;28;20085;-62
2022/09/29 09:34:35;;;;;;;3.85;1.48;;;;;;;;;;4994634;28;20547;-62
2022/09/29 09:37:13;;;;;;;3.72;1.42;;;;;;;;;;4994708;28;20411;-61
2022/09/29 09:39:44;;;;;;;7.40;1.80;;;;;;;;;;4994541;28;20034;-62
2022/09/29 09:42:23;;;;;;;10.60;2.05;;;;;;;;;;5009643;28;20045;-64
2022/09/29 09:44:54;;;;;;;3.83;1.70;;;;;;;;;;4994993;28;20050;-62
2022/09/29 09:47:37;;;;;;;5.85;1.83;;;;;;;;;;4994186;28;20085;-62
2022/09/29 09:50:14;;;;;;;3.20;1.70;;;;;;;;;;4994969;28;20038;-62
2022/09/29 09:52:50;;;;;;;3.13;1.30;;;;;;;;;;4994450;28;20038;-62
2022/09/29 09:55:25;;;;;;;6.00;1.80;;;;;;;;;;4994157;28;20498;-61
2022/09/29 09:58:09;;;;;;;4.30;1.40;;;;;;;;;;4994096;28;20519;-61
2022/09/29 10:00:50;;;;;;;9.07;2.03;;;;;;;;;;4994282;28;20125;-62
2022/09/29 10:03:16;;;;;;;2.85;1.10;;;;;;;;;;4994549;28;20449;-62
2022/09/29 10:05:44;;;;;;;4.50;2.10;;;;;;;;;;4993469;28;20034;-62
2022/09/29 10:08:24;;;;;;;3.08;1.30;;;;;;;;;;4993975;28;20037;-61
2022/09/29 10:10:50;;;;;;;2.65;1.17;;;;;;;;;;4992827;28;20037;-61
2022/09/29 10:13:16;;;;;;;3.53;1.10;;;;;;;;;;4993961;28;20073;-62
2022/09/29 10:15:49;;;;;;;4.30;1.70;;;;;;;;;;4993767;28;20034;-63
2022/09/29 10:18:51;;;;;;;4.50;1.27;;;;;;;;;;4993771;28;20045;-62
2022/09/29 10:21:39;;;;;;;3.35;1.58;;;;;;;;;;4983771;28;20121;-62
2022/09/29 10:24:19;;;;;;;5.07;1.48;;;;;;;;;;4993848;28;20073;-63
2022/09/29 10:26:47;;;;;;;3.67;1.63;;;;;;;;;;4994080;28;20066;-60
2022/09/29 10:29:48;;;;;;;6.35;1.42;;;;;;;;;;4993956;28;20152;-62
2022/09/29 10:32:38;;;;;;;7.75;1.55;;;;;;;;;;4982781;28;20072;-61
2022/09/29 10:35:15;;;;;;;3.78;1.20;;;;;;;;;;4993723;28;20361;-61
2022/09/29 10:37:45;;;;;;;4.15;1.35;;;;;;;;;;4993736;28;20093;-62
2022/09/29 10:40:19;;;;;;;3.72;1.08;;;;;;;;;;4993556;28;20039;-61
2022/09/29 10:42:48;;;;;;;5.75;1.48;;;;;;;;;;4993530;28;20034;-62
2022/09/29 10:45:28;;;;;;;5.00;1.30;;;;;;;;;;4992744;28;20026;-63
2022/09/29 10:47:57;;;;;;;6.30;1.85;;;;;;;;;;5007990;28;20054;-63
2022/09/29 10:50:29;;;;;;;4.10;1.40;;;;;;;;;;4994400;28;20053;-61
2022/09/29 10:53:02;;;;;;;3.70;1.33;;;;;;;;;;5012500;28;20108;-61
2022/09/29 10:55:28;;;;;;;;;;;;;;;;;;5013070;28;20037;-61
2022/09/29 10:57:59;;;;;;;2.50;1.30;;;;;;;;;;4980343;28;19926;-64
2022/09/29 11:00:37;;;;;;;6.05;1.48;;;;;;;;;;4973515;28;20042;-63
2022/09/29 11:03:03;;;;;;;5.95;1.60;;;;;;;;;;4973473;28;20510;-63
2022/09/29 11:05:28;;;;;;;4.78;1.58;;;;;;;;;;4973092;28;20101;-64
2022/09/29 11:07:55;;;;;;;2.95;1.20;;;;;;;;;;4973179;28;20363;-65
2022/09/29 11:10:26;;;;;;;2.85;1.10;;;;;;;;;;4972959;28;20367;-62
2022/09/29 11:12:52;;;;;;;6.70;2.00;;;;;;;;;;4985869;28;20037;-62
2022/09/29 11:15:28;;;;;;;6.18;1.95;;;;;;;;;;4992426;28;20121;-62
2022/09/29 11:17:55;;;;;;;6.20;1.58;;;;;;;;;;4993993;28;20046;-63
2022/09/29 11:20:27;;;;;;;9.82;2.20;;;;;;;;;;4996875;28;20345;-63
2022/09/29 11:22:59;;;;;;;4.95;1.20;;;;;;;;;;4993928;28;20034;-62
2022/09/29 11:26:06;;;;;;;3.35;1.42;;;;;;;;;;4993671;28;20401;-62
2022/09/29 11:28:54;;;;;;;4.95;1.58;;;;;;;;;;4984465;28;20485;-62
2022/09/29 11:31:31;;;;;;;7.32;2.00;;;;;;;;;;4994691;28;20584;-63
2022/09/29 11:34:06;;;;;;;6.10;2.00;;;;;;;;;;4994503;28;20030;-62
2022/09/29 11:36:54;;;;;;;5.00;2.55;;;;;;;;;;4994684;28;20045;-62
2022/09/29 11:39:44;;;;;;;5.07;2.13;;;;;;;;;;4996111;28;20054;-63
2022/09/29 11:42:13;;;;;;;7.75;2.58;;;;;;;;;;4995016;28;20341;-63
2022/09/29 11:44:48;;;;;;;6.10;1.73;;;;;;;;;;4988561;28;20029;-63
2022/09/29 11:47:42;;;;;;;4.68;1.67;;;;;;;;;;4979146;28;20560;-65
2022/09/29 11:50:10;;;;;;;9.55;2.47;;;;;;;;;;4993243;28;20485;-61
2022/09/29 11:52:53;;;;;;;4.13;1.67;;;;;;;;;;5011513;28;20030;-61
2022/09/29 11:55:52;;;;;;;5.00;1.60;;;;;;;;;;4996066;28;20031;-61
2022/09/29 11:58:26;;;;;;;6.65;1.75;;;;;;;;;;4975909;28;20081;-62
2022/09/29 12:00:57;;;;;;;5.78;1.65;;;;;;;;;;4995585;28;20105;-62
2022/09/29 12:03:29;;;;;;;2.80;1.52;;;;;;;;;;4996100;28;20034;-62
2022/09/29 12:06:15;;;;;;;6.07;1.60;;;;;;;;;;4987854;28;20039;-62
2022/09/29 12:08:43;;;;;;;6.32;2.38;;;;;;;;;;4987586;28;20044;-62
2022/09/29 12:11:32;;;;;;;7.32;2.17;;;;;;;;;;4996025;28;20026;-62
2022/09/29 12:14:17;;;;;;;5.63;1.77;;;;;;;;;;4995609;28;20533;-62
2022/09/29 12:16:52;;;;;;;6.60;2.20;;;;;;;;;;4976041;28;20462;-62
2022/09/29 12:19:22;;;;;;;5.20;1.95;;;;;;;;;;4991403;28;20062;-61
2022/09/29 12:21:51;;;;;;;4.60;1.80;;;;;;;;;;4986402;28;20049;-62
2022/09/29 12:24:21;;;;;;;3.33;1.70;;;;;;;;;;4990638;28;20041;-64
2022/09/29 12:26:49;;;;;;;4.82;1.73;;;;;;;;;;4994603;28;20388;-62
2022/09/29 12:29:33;;;;;;;4.65;2.03;;;;;;;;;;4995465;28;20023;-62
2022/09/29 12:32:08;;;;;;;7.88;2.47;;;;;;;;;;4984064;28;20027;-63
2022/09/29 12:34:48;;;;;;;7.72;2.60;;;;;;;;;;4984453;28;20038;-61
2022/09/29 12:37:28;;;;;;;6.43;2.20;;;;;;;;;;4992900;28;20401;-62
2022/09/29 12:40:21;;;;;;;7.18;2.42;;;;;;;;;;4994318;28;20053;-62
2022/09/29 12:43:10;;;;;;;7.13;1.92;;;;;;;;;;4992314;28;20445;-61
2022/09/29 12:45:45;;;;;;;2.63;1.92;;;;;;;;;;4974409;28;20038;-62
2022/09/29 12:48:11;;;;;;;4.13;2.28;;;;;;;;;;4989472;28;20553;-62
2022/09/29 12:50:41;;;;;;;5.28;1.90;;;;;;;;;;5013345;28;20033;-63
2022/09/29 12:53:19;;;;;;;6.75;1.95;;;;;;;;;;5010476;28;20080;-63
2022/09/29 12:55:47;;;;;;;5.35;2.60;;;;;;;;;;4987789;28;20164;-63
2022/09/29 12:58:24;;;;;;;5.07;2.25;;;;;;;;;;4988918;28;20050;-62
2022/09/29 13:00:58;;;;;;;3.28;2.13;;;;;;;;;;4993734;28;20476;-62
2022/09/29 13:03:24;;;;;;;5.30;2.72;;;;;;;;;;4993209;28;20481;-62
2022/09/29 13:06:08;;;;;;;7.82;2.03;;;;;;;;;;4993452;28;20033;-63
2022/09/29 13:08:59;;;;;;;6.85;2.35;;;;;;;;;;4986717;28;20177;-62
2022/09/29 13:11:46;;;;;;;3.10;1.90;;;;;;;;;;4993883;28;20046;-66
2022/09/29 13:14:30;;;;;;;4.72;2.50;;;;;;;;;;4991571;28;20046;-67
2022/09/29 13:17:11;;;;;;;5.18;2.20;;;;;;;;;;4993276;28;20038;-67
2022/09/29 13:19:46;;;;;;;3.60;2.20;;;;;;;;;;4992591;28;20389;-67
2022/09/29 13:22:49;;;;;;;3.42;2.25;;;;;;;;;;4991362;28;20388;-69
2022/09/29 13:25:21;;;;;;;6.47;2.80;;;;;;;;;;4992507;28;20043;-68
2022/09/29 13:27:48;;;;;;;4.72;2.60;;;;;;;;;;4992459;28;20081;-70
2022/09/29 13:30:15;;;;;;;5.55;2.50;;;;;;;;;;4988232;28;20116;-66
2022/09/29 13:32:46;;;;;;;5.57;2.67;;;;;;;;;;4988068;28;20042;-66
2022/09/29 13:35:18;;;;;;;7.90;3.00;;;;;;;;;;4974100;28;20035;-67
2022/09/29 13:38:00;;;;;;;5.00;2.90;;;;;;;;;;5009352;28;20386;-68
2022/09/29 13:40:28;;;;;;;7.88;2.90;;;;;;;;;;4972309;28;20057;-67
2022/09/29 13:42:56;;;;;;;5.28;2.63;;;;;;;;;;5003835;28;20030;-65
2022/09/29 13:45:25;;;;;;;4.82;2.30;;;;;;;;;;4985496;28;20097;-68
2022/09/29 13:48:00;;;;;;;5.43;2.83;;;;;;;;;;4978603;28;20451;-68
2022/09/29 13:50:48;;;;;;;6.97;2.63;;;;;;;;;;4972342;28;20038;-68
2022/09/29 13:53:27;;;;;;;9.25;3.30;;;;;;;;;;4971700;28;20074;-68
2022/09/29 13:56:08;;;;;;;9.18;2.58;;;;;;;;;;4990543;28;20125;-69
2022/09/29 13:58:47;;;;;;;8.48;2.60;;;;;;;;;;5000281;28;20048;-67
2022/09/29 14:01:35;;;;;;;7.10;3.00;;;;;;;;;;4998465;28;20033;-68
2022/09/29 14:04:32;;;;;;;11.25;2.53;;;;;;;;;;4992197;28;20037;-69
2022/09/29 14:07:01;;;;;;;16.33;2.42;;;;;;;;;;4992476;28;20045;-69
2022/09/29 14:09:32;;;;;;;16.98;3.00;;;;;;;;;;4991498;28;20037;-68
2022/09/29 14:12:07;;;;;;;10.35;2.78;;;;;;;;;;4990974;28;20038;-66
2022/09/29 14:14:38;;;;;;;16.60;2.88;;;;;;;;;;4973705;28;20147;-67
2022/09/29 14:17:12;;;;;;;8.60;2.80;;;;;;;;;;4980430;28;20110;-68
2022/09/29 14:20:14;;;;;;;13.07;2.92;;;;;;;;;;4983620;28;20480;-68
2022/09/29 14:22:43;;;;;;;6.78;2.63;;;;;;;;;;4991440;28;20034;-69
2022/09/29 14:25:11;;;;;;;10.00;2.67;;;;;;;;;;5007381;28;20062;-67
2022/09/29 14:28:03;;;;;;;11.82;2.60;;;;;;;;;;4987089;28;20047;-69
2022/09/29 14:30:34;;;;;;;9.48;2.70;;;;;;;;;;4973032;28;20034;-68
2022/09/29 14:33:27;;;;;;;6.22;2.00;;;;;;;;;;4991116;28;20113;-68
2022/09/29 14:35:59;;;;;;;9.65;2.38;;;;;;;;;;4989628;28;20052;-67
2022/09/29 14:38:39;;;;;;;8.77;2.50;;;;;;;;;;4984152;28;20114;-68
2022/09/29 14:41:05;;;;;;;5.88;2.17;;;;;;;;;;4990343;28;20504;-67
2022/09/29 14:43:52;;;;;;;8.75;2.40;;;;;;;;;;4988931;28;20030;-67
2022/09/29 14:53:08;;;;;;;7.07;2.50;;;;;;;;;;4973031;28;20054;-68
2022/09/29 14:56:02;;;;;;;4.20;2.05;;;;;;;;;;4989150;28;20058;-66
2022/09/29 14:58:43;;;;;;;9.80;5.10;;;;;;;;;;4973399;28;20101;-68
2022/09/29 15:01:11;;;;;;;6.38;2.72;;;;;;;;;;4987151;28;20034;-68
2022/09/29 15:03:48;;;;;;;5.25;2.10;;;;;;;;;;4989034;28;20097;-68
2022/09/29 15:06:20;;;;;;;4.88;1.67;;;;;;;;;;4980073;28;20095;-68
2022/09/29 15:08:55;;;;;;;9.15;3.97;;;;;;;;;;4989285;28;20478;-68
2022/09/29 15:11:36;;;;;;;5.85;2.35;;;;;;;;;;4972715;28;20921;-70
2022/09/29 15:14:35;;;;;;;8.75;2.35;;;;;;;;;;4988295;28;20564;-68
2022/09/29 15:17:29;;;;;;;10.27;2.60;;;;;;;;;;4949818;28;20054;-67
2022/09/29 15:20:01;;;;;;;6.85;2.65;;;;;;;;;;4973133;28;20035;-67
2022/09/29 15:22:57;;;;;;;6.60;2.20;;;;;;;;;;4987003;28;20591;-67
2022/09/29 15:25:34;;;;;;;3.95;2.00;;;;;;;;;;4989343;28;20073;-65
2022/09/29 15:28:09;;;;;;;5.93;1.88;;;;;;;;;;4986071;28;20120;-68
2022/09/29 15:30:35;;;;;;;5.88;2.22;;;;;;;;;;4989078;28;20439;-68
2022/09/29 15:33:23;;;;;;;6.20;2.10;;;;;;;;;;4990431;28;20022;-66
2022/09/29 15:35:54;;;;;;;7.78;2.65;;;;;;;;;;4982506;28;20049;-67